Map

Track Data

SID SEASON NUMBER BASIN SUBBASIN NAME ISO_TIME NATURE LAT LON WMO_WIND WMO_PRES WMO_AGENCY TRACK_TYPE DIST2LAND LANDFALL IFLAG USA_AGENCY USA_ATCF_ID USA_LAT USA_LON USA_RECORD USA_STATUS USA_WIND USA_PRES USA_SSHS USA_R34_NE USA_R34_SE USA_R34_SW USA_R34_NW USA_R50_NE USA_R50_SE USA_R50_SW USA_R50_NW USA_R64_NE USA_R64_SE USA_R64_SW USA_R64_NW USA_POCI USA_ROCI USA_RMW USA_EYE TOKYO_LAT TOKYO_LON TOKYO_GRADE TOKYO_WIND TOKYO_PRES TOKYO_R50_DIR TOKYO_R50_LONG TOKYO_R50_SHORT TOKYO_R30_DIR TOKYO_R30_LONG TOKYO_R30_SHORT TOKYO_LAND CMA_LAT CMA_LON CMA_CAT CMA_WIND CMA_PRES HKO_LAT HKO_LON HKO_CAT HKO_WIND HKO_PRES NEWDELHI_LAT NEWDELHI_LON NEWDELHI_GRADE NEWDELHI_WIND NEWDELHI_PRES NEWDELHI_CI NEWDELHI_DP NEWDELHI_POCI REUNION_LAT REUNION_LON REUNION_TYPE REUNION_WIND REUNION_PRES REUNION_TNUM REUNION_CI REUNION_RMW REUNION_R34_NE REUNION_R34_SE REUNION_R34_SW REUNION_R34_NW REUNION_R50_NE REUNION_R50_SE REUNION_R50_SW REUNION_R50_NW REUNION_R64_NE REUNION_R64_SE REUNION_R64_SW REUNION_R64_NW BOM_LAT BOM_LON BOM_TYPE BOM_WIND BOM_PRES BOM_TNUM BOM_CI BOM_RMW BOM_R34_NE BOM_R34_SE BOM_R34_SW BOM_R34_NW BOM_R50_NE BOM_R50_SE BOM_R50_SW BOM_R50_NW BOM_R64_NE BOM_R64_SE BOM_R64_SW BOM_R64_NW BOM_ROCI BOM_POCI BOM_EYE BOM_POS_METHOD BOM_PRES_METHOD NADI_LAT NADI_LON NADI_CAT NADI_WIND NADI_PRES WELLINGTON_LAT WELLINGTON_LON WELLINGTON_WIND WELLINGTON_PRES DS824_LAT DS824_LON DS824_STAGE DS824_WIND DS824_PRES TD9636_LAT TD9636_LON TD9636_STAGE TD9636_WIND TD9636_PRES TD9635_LAT TD9635_LON TD9635_WIND TD9635_PRES TD9635_ROCI NEUMANN_LAT NEUMANN_LON NEUMANN_CLASS NEUMANN_WIND NEUMANN_PRES MLC_LAT MLC_LON MLC_CLASS MLC_WIND MLC_PRES USA_GUST BOM_GUST BOM_GUST_PER REUNION_GUST REUNION_GUST_PER USA_SEAHGT USA_SEARAD_NE USA_SEARAD_SE USA_SEARAD_SW USA_SEARAD_NW STORM_SPEED STORM_DIR
2002001S09165 2002 1 SP MM NOT_NAMED 2001-12-31 21:00:00 NR -8.50000 165.200 main 402 402 ________O_____ -1 -8.50000 165.200 35 1002 17 111
2002001S09165 2002 1 SP MM NOT_NAMED 2002-01-01 00:00:00 NR -8.80000 166.000 main 458 458 ________O_____ -1 -8.80000 166.000 35 1002 11 113
2002001S09165 2002 1 SP MM NOT_NAMED 2002-01-01 03:00:00 NR -8.94066 166.237 main 472 468 ________P_____ -1 -8.94066 166.237 35 1001 3 135
2002001S09165 2002 1 SP MM NOT_NAMED 2002-01-01 06:00:00 NR -9.00000 166.200 main 468 468 ________O_____ -1 -9.00000 166.200 35 1000 2 150
2002001S09165 2002 1 SP MM NOT_NAMED 2002-01-01 09:00:00 NR -9.11500 166.342 main 473 473 ________P_____ -1 -9.11500 166.342 35 999 4 124
2002001S09165 2002 1 SP MM NOT_NAMED 2002-01-01 12:00:00 NR -9.20000 166.500 main 490 490 ________O_____ -1 -9.20000 166.500 35 998 3 108
2002001S09165 2002 1 SP MM NOT_NAMED 2002-01-01 15:00:00 NR -9.21239 166.647 main 500 500 ________P_____ -1 -9.21239 166.647 35 998 3 90
2002001S09165 2002 1 SP MM NOT_NAMED 2002-01-01 18:00:00 NR -9.20000 166.800 main 521 521 ________O_____ -1 -9.20000 166.800 35 998 4 76
2002001S09165 2002 1 SP MM NOT_NAMED 2002-01-01 21:00:00 NR -9.12903 166.994 main 545 545 ________P_____ -1 -9.12903 166.994 4 67
2002001S09165 2002 1 SP MM NOT_NAMED 2002-01-02 00:00:00 NR -9.02600 167.217 main 569 569 ________P_____ -1 -9.02600 167.217 5 66
2002001S09165 2002 1 SP MM NOT_NAMED 2002-01-02 03:00:00 NR -8.92447 167.457 main 604 604 ________P_____ -1 -8.92447 167.457 5 71
2002001S09165 2002 1 SP MM NOT_NAMED 2002-01-02 06:00:00 NR -8.85801 167.703 main 625 625 ________P_____ -1 -8.85801 167.703 5 82
2002001S09165 2002 1 SP MM NOT_NAMED 2002-01-02 09:00:00 NR -8.86024 167.943 main 646 646 ________P_____ -1 -8.86024 167.943 5 103
2002001S09165 2002 1 SP MM NOT_NAMED 2002-01-02 12:00:00 NR -8.96477 168.166 main 661 643 ________P_____ -1 -8.96477 168.166 5 130
2002001S09165 2002 1 SP MM NOT_NAMED 2002-01-02 15:00:00 NR -9.20528 168.363 main 646 607 ________P_____ -1 -9.20528 168.363 7 152
2002001S09165 2002 1 SP MM NOT_NAMED 2002-01-02 18:00:00 NR -9.61552 168.521 main 607 569 ________P_____ -1 -9.61552 168.521 10 164
2002001S09165 2002 1 SP MM NOT_NAMED 2002-01-02 20:00:00 NR -10.0000 168.600 main 569 548 ________O_____ -1 -10.0000 168.600 30 998 14 170
2002001S09165 2002 1 SP MM NOT_NAMED 2002-01-02 21:00:00 NR -10.2764 168.635 main 538 472 ________P_____ -1 -10.2764 168.635 31 998 15 174
2002001S09165 2002 1 SP MM NOT_NAMED 2002-01-03 00:00:00 NR -11.0000 168.700 main 472 453 ________O_____ -1 -11.0000 168.700 35 998 9 176
2002001S09165 2002 1 SP MM NOT_NAMED 2002-01-03 03:00:00 NR -11.1554 168.691 main 453 453 ________P_____ -1 -11.1554 168.691 35 998 1 270
2002001S09165 2002 1 SP MM NOT_NAMED 2002-01-03 06:00:00 NR -11.0000 168.600 main 467 467 ________O_____ -1 -11.0000 168.600 35 998 1 355
2002001S09165 2002 1 SP MM NOT_NAMED 2002-01-03 09:00:00 NR -11.0438 168.666 main 472 462 ________P_____ -1 -11.0438 168.666 2 123
2002001S09165 2002 1 SP MM NOT_NAMED 2002-01-03 12:00:00 NR -11.1176 168.784 main 468 458 ________P_____ -1 -11.1176 168.784 3 127
2002001S09165 2002 1 SP MM NOT_NAMED 2002-01-03 15:00:00 NR -11.2122 168.898 main 464 455 ________P_____ -1 -11.2122 168.898 3 140
2002001S09165 2002 1 SP MM NOT_NAMED 2002-01-03 18:00:00 NR -11.3190 168.953 main 461 445 ________P_____ -1 -11.3190 168.953 2 0
2002001S09165 2002 1 SP MM NOT_NAMED 2002-01-03 21:00:00 NR -11.4292 168.893 main 445 424 ________P_____ -1 -11.4292 168.893 4 233
2002001S09165 2002 1 SP MM NOT_NAMED 2002-01-04 00:00:00 NR -11.5340 168.661 main 424 387 ________P_____ -1 -11.5340 168.661 7 254
2002001S09165 2002 1 SP MM NOT_NAMED 2002-01-04 03:00:00 NR -11.6242 168.203 main 387 349 ________P_____ -1 -11.6242 168.203 12 262
2002001S09165 2002 1 SP MM NOT_NAMED 2002-01-04 06:00:00 NR -11.6898 167.462 main 349 335 ________P_____ -1 -11.6898 167.462 18 267
2002001S09165 2002 1 SP MM NOT_NAMED 2002-01-04 09:00:00 NR -11.7196 166.380 main 336 311 ________P_____ -1 -11.7196 166.380 25 270
2002001S09165 2002 1 SP MM NOT_NAMED 2002-01-04 12:00:00 NR -11.7000 164.900 main 301 125 ________O_____ -1 -11.7000 164.900 35 1000 33 272
2002001S09165 2002 1 SP MM NOT_NAMED 2002-01-04 15:00:00 NR -11.6214 163.012 main 117 81 ________P_____ -1 -11.6214 163.012 35 1001 39 273
2002001S09165 2002 1 SP MM NOT_NAMED 2002-01-04 18:00:00 NR -11.5000 160.900 main 120 ________O_____ -1 -11.5000 160.900 35 1002 42 273

Digital Typhoon Data and Search

About IBTrACS Database

This database is a web-friendly format of International Best Track Archive for Climate Stewardship (IBTrACS), a global best track data archive curated by NOAA dating back to 1842.

Updated: 2021-11-26